Terminal Aerodrome Forecast
Issued by NWS Wilmington, OH

Current Version | Previous Version | Graphics & Text | Print | Product List | Glossary On
Versions: 1 2 3 4 5 6 7 8 9 10 11 12 13 14 15 16 17 18 19 20 21 22 23
000
FTUS41 KILN 242300 RRA
TAFILN
TAF
KILN 242342Z 2500/2524 19012G18KT P6SM SCT250
     FM250200 18010KT P6SM BKN200
     FM251000 19011KT P6SM BKN090
     FM251300 21017G25KT P6SM SCT050 BKN080
     FM251800 22020G27KT P6SM VCSH BKN050=

USA.gov is the U.S. government's official web portal to all federal, state and local government web resources and services.